sensor_id;sensor_type;location;lat;lon;timestamp;temperature;humidity
5617;DHT22;2830;50.656;7.568;2022-11-20T14:18:51;5.90;99.90
5617;DHT22;2830;50.656;7.568;2022-11-20T14:21:28;5.80;99.90
5617;DHT22;2830;50.656;7.568;2022-11-20T14:24:06;5.70;99.90
5617;DHT22;2830;50.656;7.568;2022-11-20T14:26:33;5.70;99.90
5617;DHT22;2830;50.656;7.568;2022-11-20T14:29:00;5.70;99.90
5617;DHT22;2830;50.656;7.568;2022-11-20T14:31:27;5.80;99.90
5617;DHT22;2830;50.656;7.568;2022-11-20T14:33:55;5.70;99.90
5617;DHT22;2830;50.656;7.568;2022-11-20T14:36:23;5.70;99.90
5617;DHT22;2830;50.656;7.568;2022-11-20T14:38:52;5.70;99.90
5617;DHT22;2830;50.656;7.568;2022-11-20T14:41:23;5.70;99.90
5617;DHT22;2830;50.656;7.568;2022-11-20T14:43:56;5.70;99.90
5617;DHT22;2830;50.656;7.568;2022-11-20T14:46:23;5.60;99.90
5617;DHT22;2830;50.656;7.568;2022-11-20T14:48:55;5.60;99.90
5617;DHT22;2830;50.656;7.568;2022-11-20T14:51:41;5.60;99.90
5617;DHT22;2830;50.656;7.568;2022-11-20T14:54:18;5.60;99.90
5617;DHT22;2830;50.656;7.568;2022-11-20T14:56:59;5.60;99.90
5617;DHT22;2830;50.656;7.568;2022-11-20T14:59:27;5.60;99.90
5617;DHT22;2830;50.656;7.568;2022-11-20T15:01:56;5.50;99.90
5617;DHT22;2830;50.656;7.568;2022-11-20T15:04:24;5.50;99.90
5617;DHT22;2830;50.656;7.568;2022-11-20T15:06:54;5.50;99.90
5617;DHT22;2830;50.656;7.568;2022-11-20T15:09:21;5.50;99.90
5617;DHT22;2830;50.656;7.568;2022-11-20T15:12:00;5.50;99.90
5617;DHT22;2830;50.656;7.568;2022-11-20T15:14:29;5.50;99.90
5617;DHT22;2830;50.656;7.568;2022-11-20T15:16:56;5.40;99.90
5617;DHT22;2830;50.656;7.568;2022-11-20T15:19:25;5.40;99.90
5617;DHT22;2830;50.656;7.568;2022-11-20T15:21:52;5.40;99.90
5617;DHT22;2830;50.656;7.568;2022-11-20T15:24:19;5.40;99.90
5617;DHT22;2830;50.656;7.568;2022-11-20T15:26:46;5.40;99.90
5617;DHT22;2830;50.656;7.568;2022-11-20T15:29:15;5.50;99.90
5617;DHT22;2830;50.656;7.568;2022-11-20T15:31:45;5.50;99.90
5617;DHT22;2830;50.656;7.568;2022-11-20T15:34:16;5.50;99.90
5617;DHT22;2830;50.656;7.568;2022-11-20T15:36:43;5.50;99.90
5617;DHT22;2830;50.656;7.568;2022-11-20T15:39:10;5.50;99.90
5617;DHT22;2830;50.656;7.568;2022-11-20T15:41:38;5.50;99.90
5617;DHT22;2830;50.656;7.568;2022-11-20T15:44:05;5.60;99.90
5617;DHT22;2830;50.656;7.568;2022-11-20T15:46:35;5.50;99.90
5617;DHT22;2830;50.656;7.568;2022-11-20T15:49:12;5.60;99.90
5617;DHT22;2830;50.656;7.568;2022-11-20T15:54:19;5.50;99.90
5617;DHT22;2830;50.656;7.568;2022-11-20T16:04:16;5.50;99.90
5617;DHT22;2830;50.656;7.568;2022-11-20T16:09:11;5.60;99.90
5617;DHT22;2830;50.656;7.568;2022-11-20T16:11:38;5.60;99.90
5617;DHT22;2830;50.656;7.568;2022-11-20T16:14:05;5.50;99.90
5617;DHT22;2830;50.656;7.568;2022-11-20T16:16:51;5.50;99.90
5617;DHT22;2830;50.656;7.568;2022-11-20T16:41:49;5.40;99.90
5617;DHT22;2830;50.656;7.568;2022-11-20T16:44:16;5.40;99.90
5617;DHT22;2830;50.656;7.568;2022-11-20T16:46:43;5.30;99.90
5617;DHT22;2830;50.656;7.568;2022-11-20T16:49:13;5.30;99.90
5617;DHT22;2830;50.656;7.568;2022-11-20T16:51:40;5.20;99.90
5617;DHT22;2830;50.656;7.568;2022-11-20T16:54:09;5.20;99.90
5617;DHT22;2830;50.656;7.568;2022-11-20T16:56:36;5.10;99.90
5617;DHT22;2830;50.656;7.568;2022-11-20T16:59:03;5.10;99.90
5617;DHT22;2830;50.656;7.568;2022-11-20T17:04:01;5.50;99.90
5617;DHT22;2830;50.656;7.568;2022-11-20T17:11:28;5.00;99.90
5617;DHT22;2830;50.656;7.568;2022-11-20T17:13:55;5.00;99.90
5617;DHT22;2830;50.656;7.568;2022-11-20T17:16:24;5.00;99.90
5617;DHT22;2830;50.656;7.568;2022-11-20T17:18:52;5.00;99.90
5617;DHT22;2830;50.656;7.568;2022-11-20T17:21:27;5.00;99.90
5617;DHT22;2830;50.656;7.568;2022-11-20T17:23:55;5.00;99.90
5617;DHT22;2830;50.656;7.568;2022-11-20T17:26:22;5.00;99.90
5617;DHT22;2830;50.656;7.568;2022-11-20T17:28:55;5.00;99.90
5617;DHT22;2830;50.656;7.568;2022-11-20T17:31:23;5.00;99.90
5617;DHT22;2830;50.656;7.568;2022-11-20T17:33:52;5.10;99.90
5617;DHT22;2830;50.656;7.568;2022-11-20T17:36:19;5.00;99.90
5617;DHT22;2830;50.656;7.568;2022-11-20T17:38:46;5.00;99.90
5617;DHT22;2830;50.656;7.568;2022-11-20T17:41:15;5.10;99.90
5617;DHT22;2830;50.656;7.568;2022-11-20T17:43:42;4.90;99.90
5617;DHT22;2830;50.656;7.568;2022-11-20T17:46:11;5.10;99.90
5617;DHT22;2830;50.656;7.568;2022-11-20T17:48:39;5.10;99.90
5617;DHT22;2830;50.656;7.568;2022-11-20T17:51:20;5.10;99.90
5617;DHT22;2830;50.656;7.568;2022-11-20T17:53:52;5.10;99.90
5617;DHT22;2830;50.656;7.568;2022-11-20T17:56:19;5.10;99.90
5617;DHT22;2830;50.656;7.568;2022-11-20T17:59:10;5.10;99.90
5617;DHT22;2830;50.656;7.568;2022-11-20T18:01:37;5.10;99.90
5617;DHT22;2830;50.656;7.568;2022-11-20T18:04:05;5.10;99.90
5617;DHT22;2830;50.656;7.568;2022-11-20T18:06:31;5.20;99.90
5617;DHT22;2830;50.656;7.568;2022-11-20T18:08:59;5.10;99.90
5617;DHT22;2830;50.656;7.568;2022-11-20T18:11:29;5.10;99.90
5617;DHT22;2830;50.656;7.568;2022-11-20T18:14:01;5.20;99.90
5617;DHT22;2830;50.656;7.568;2022-11-20T18:16:50;5.20;99.90
5617;DHT22;2830;50.656;7.568;2022-11-20T18:19:20;5.20;99.90
5617;DHT22;2830;50.656;7.568;2022-11-20T18:21:51;5.20;99.90
5617;DHT22;2830;50.656;7.568;2022-11-20T18:24:18;5.20;99.90
5617;DHT22;2830;50.656;7.568;2022-11-20T18:26:45;5.30;99.90
5617;DHT22;2830;50.656;7.568;2022-11-20T18:29:13;5.30;99.90
5617;DHT22;2830;50.656;7.568;2022-11-20T18:31:40;5.30;99.90
5617;DHT22;2830;50.656;7.568;2022-11-20T18:34:07;5.30;99.90
5617;DHT22;2830;50.656;7.568;2022-11-20T18:36:37;5.30;99.90
5617;DHT22;2830;50.656;7.568;2022-11-20T18:39:04;5.30;99.90
5617;DHT22;2830;50.656;7.568;2022-11-20T18:41:31;5.30;99.90
5617;DHT22;2830;50.656;7.568;2022-11-20T18:44:22;5.50;99.90
5617;DHT22;2830;50.656;7.568;2022-11-20T18:47:11;5.40;99.90
5617;DHT22;2830;50.656;7.568;2022-11-20T18:49:46;5.60;99.90
5617;DHT22;2830;50.656;7.568;2022-11-20T18:52:17;5.40;99.90
5617;DHT22;2830;50.656;7.568;2022-11-20T18:54:45;5.40;99.90
5617;DHT22;2830;50.656;7.568;2022-11-20T18:57:11;5.50;99.90
5617;DHT22;2830;50.656;7.568;2022-11-20T18:59:40;5.40;99.90
5617;DHT22;2830;50.656;7.568;2022-11-20T19:02:13;5.50;99.90
5617;DHT22;2830;50.656;7.568;2022-11-20T19:04:40;5.60;99.90
5617;DHT22;2830;50.656;7.568;2022-11-20T19:07:08;5.60;99.90
5617;DHT22;2830;50.656;7.568;2022-11-20T21:50:23;6.20;99.90
5617;DHT22;2830;50.656;7.568;2022-11-20T21:52:50;6.30;99.90
5617;DHT22;2830;50.656;7.568;2022-11-20T21:55:16;6.20;99.90
5617;DHT22;2830;50.656;7.568;2022-11-20T21:57:43;6.20;99.90
5617;DHT22;2830;50.656;7.568;2022-11-20T22:00:11;6.30;99.90
5617;DHT22;2830;50.656;7.568;2022-11-20T22:02:38;6.30;99.90
5617;DHT22;2830;50.656;7.568;2022-11-20T22:05:06;6.30;99.90
5617;DHT22;2830;50.656;7.568;2022-11-20T22:07:33;6.30;99.90
5617;DHT22;2830;50.656;7.568;2022-11-20T22:10:00;6.30;99.90
5617;DHT22;2830;50.656;7.568;2022-11-20T22:12:27;6.40;99.90
5617;DHT22;2830;50.656;7.568;2022-11-20T22:17:20;6.30;99.90
5617;DHT22;2830;50.656;7.568;2022-11-20T22:20:08;6.30;99.90
5617;DHT22;2830;50.656;7.568;2022-11-20T22:22:34;6.30;99.90
5617;DHT22;2830;50.656;7.568;2022-11-20T22:25:01;6.30;99.90
5617;DHT22;2830;50.656;7.568;2022-11-20T22:27:28;6.20;99.90
5617;DHT22;2830;50.656;7.568;2022-11-20T22:29:54;6.30;99.90
5617;DHT22;2830;50.656;7.568;2022-11-20T22:32:21;6.20;99.90
5617;DHT22;2830;50.656;7.568;2022-11-20T22:34:48;6.30;99.90
5617;DHT22;2830;50.656;7.568;2022-11-20T22:37:15;6.10;99.90
5617;DHT22;2830;50.656;7.568;2022-11-20T22:39:41;6.20;99.90
5617;DHT22;2830;50.656;7.568;2022-11-20T22:42:08;6.20;99.90
5617;DHT22;2830;50.656;7.568;2022-11-20T22:44:35;6.20;99.90
5617;DHT22;2830;50.656;7.568;2022-11-20T22:47:01;6.10;99.90
5617;DHT22;2830;50.656;7.568;2022-11-20T22:49:34;6.10;99.90
5617;DHT22;2830;50.656;7.568;2022-11-20T22:52:00;6.10;99.90
5617;DHT22;2830;50.656;7.568;2022-11-20T22:54:27;6.10;99.90
5617;DHT22;2830;50.656;7.568;2022-11-20T22:56:54;6.20;99.90
5617;DHT22;2830;50.656;7.568;2022-11-20T22:59:20;6.20;99.90
5617;DHT22;2830;50.656;7.568;2022-11-20T23:01:47;6.10;99.90
5617;DHT22;2830;50.656;7.568;2022-11-20T23:04:13;6.10;99.90
5617;DHT22;2830;50.656;7.568;2022-11-20T23:06:41;6.10;99.90
5617;DHT22;2830;50.656;7.568;2022-11-20T23:09:08;6.10;99.90
5617;DHT22;2830;50.656;7.568;2022-11-20T23:11:36;6.10;99.90
5617;DHT22;2830;50.656;7.568;2022-11-20T23:14:06;6.10;99.90
5617;DHT22;2830;50.656;7.568;2022-11-20T23:16:33;6.10;99.90
5617;DHT22;2830;50.656;7.568;2022-11-20T23:19:08;6.10;99.90
5617;DHT22;2830;50.656;7.568;2022-11-20T23:21:37;6.10;99.90
5617;DHT22;2830;50.656;7.568;2022-11-20T23:24:04;6.10;99.90
5617;DHT22;2830;50.656;7.568;2022-11-20T23:26:34;6.10;99.90
5617;DHT22;2830;50.656;7.568;2022-11-20T23:29:02;6.20;99.90
5617;DHT22;2830;50.656;7.568;2022-11-20T23:31:30;6.20;99.90
5617;DHT22;2830;50.656;7.568;2022-11-20T23:33:58;6.20;99.90
5617;DHT22;2830;50.656;7.568;2022-11-20T23:36:25;6.20;99.90
5617;DHT22;2830;50.656;7.568;2022-11-20T23:38:52;6.20;99.90
5617;DHT22;2830;50.656;7.568;2022-11-20T23:41:18;6.20;99.90
5617;DHT22;2830;50.656;7.568;2022-11-20T23:43:45;6.20;99.90
5617;DHT22;2830;50.656;7.568;2022-11-20T23:46:11;6.20;99.90
